Time;durP1;ratioP1;P1;durP2;ratioP2;P2;SDS_P1;SDS_P2;PMS_P1;PMS_P2;Temp;Humidity;BMP_temperature;BMP_pressure;BME280_temperature;BME280_humidity;BME280_pressure;Samples;Min_cycle;Max_cycle;Signal;HPM_P1;HPM_P2
2023/08/02 00:01:01;;;;;;;0.00;0.00;;;17.30;99.90;;;;;;5031939;28;20132;-55
2023/08/02 00:03:27;;;;;;;0.00;0.00;;;17.20;99.90;;;;;;5035172;28;20040;-56
2023/08/02 00:05:57;;;;;;;0.00;0.00;;;17.20;99.90;;;;;;5041003;28;20049;-55
2023/08/02 00:08:24;;;;;;;0.00;0.00;;;17.00;99.90;;;;;;5037363;28;20041;-56
2023/08/02 00:10:50;;;;;;;0.00;0.00;;;16.90;99.90;;;;;;5036811;28;20037;-56
2023/08/02 00:13:15;;;;;;;0.00;0.00;;;16.70;99.90;;;;;;5038308;28;20040;-56
2023/08/02 00:15:41;;;;;;;0.00;0.00;;;16.80;99.90;;;;;;5032693;28;20566;-56
2023/08/02 00:18:07;;;;;;;0.00;0.00;;;16.90;99.90;;;;;;5040181;28;20041;-55
2023/08/02 00:20:33;;;;;;;0.00;0.00;;;16.80;99.90;;;;;;5040554;28;20116;-57
2023/08/02 00:22:59;;;;;;;0.00;0.00;;;16.70;99.90;;;;;;5032585;28;20414;-56
2023/08/02 00:25:24;;;;;;;0.00;0.00;;;16.70;99.90;;;;;;5039811;28;20037;-57
2023/08/02 00:27:50;;;;;;;0.00;0.00;;;16.60;99.90;;;;;;5042536;28;20112;-56
2023/08/02 00:30:16;;;;;;;0.00;0.00;;;16.60;99.90;;;;;;5030652;28;20029;-57
2023/08/02 00:32:48;;;;;;;0.00;0.00;;;16.50;99.90;;;;;;5027793;28;20029;-57
2023/08/02 00:35:14;;;;;;;0.00;0.00;;;16.60;99.90;;;;;;5041282;28;20171;-56
2023/08/02 00:37:41;;;;;;;0.00;0.00;;;16.50;99.90;;;;;;5040056;28;20109;-57
2023/08/02 00:40:08;;;;;;;0.00;0.00;;;16.40;99.90;;;;;;5040681;28;20029;-57
2023/08/02 00:42:35;;;;;;;0.00;0.00;;;16.50;99.90;;;;;;5030267;28;20032;-56
2023/08/02 00:45:01;;;;;;;0.00;0.00;;;16.50;99.90;;;;;;5033216;28;20533;-57
2023/08/02 00:47:27;;;;;;;0.00;0.00;;;16.40;99.90;;;;;;5038365;28;20400;-55
2023/08/02 00:49:53;;;;;;;0.00;0.00;;;16.40;99.90;;;;;;5035194;28;20041;-57
2023/08/02 00:52:19;;;;;;;0.00;0.00;;;16.50;99.90;;;;;;5037125;28;20041;-57
2023/08/02 00:54:45;;;;;;;0.00;0.00;;;16.30;99.90;;;;;;5047073;28;20025;-55
2023/08/02 00:57:10;;;;;;;0.00;0.00;;;16.40;99.90;;;;;;5044426;28;20039;-57
2023/08/02 00:59:38;;;;;;;0.00;0.00;;;16.40;99.90;;;;;;5041465;28;20044;-56
2023/08/02 01:02:06;;;;;;;0.00;0.00;;;16.20;99.90;;;;;;5038465;28;20033;-58
2023/08/02 01:04:32;;;;;;;0.00;0.00;;;16.30;99.90;;;;;;5044761;28;20496;-57
2023/08/02 01:07:04;;;;;;;0.00;0.00;;;16.30;99.90;;;;;;5046007;28;20037;-59
2023/08/02 01:09:42;;;;;;;0.00;0.00;;;16.20;99.90;;;;;;5040931;28;20036;-58
2023/08/02 01:12:10;;;;;;;0.00;0.00;;;16.30;99.90;;;;;;5035963;28;20101;-57
2023/08/02 01:14:39;;;;;;;0.00;0.00;;;16.40;99.90;;;;;;5046843;28;20555;-57
2023/08/02 01:17:07;;;;;;;0.00;0.00;;;16.40;99.90;;;;;;5044778;28;20139;-56
2023/08/02 01:19:33;;;;;;;0.00;0.00;;;16.20;99.90;;;;;;5039043;28;20098;-56
2023/08/02 01:21:58;;;;;;;0.00;0.00;;;16.20;99.90;;;;;;5040805;28;20046;-57
2023/08/02 01:24:36;;;;;;;0.00;0.00;;;16.40;99.90;;;;;;5044044;28;20043;-57
2023/08/02 01:27:11;;;;;;;0.00;0.00;;;16.40;99.90;;;;;;5036930;28;20128;-54
2023/08/02 01:29:40;;;;;;;0.00;0.00;;;16.30;99.90;;;;;;5040120;28;20075;-57
2023/08/02 01:32:08;;;;;;;0.00;0.00;;;16.20;99.90;;;;;;5045362;28;20468;-57
2023/08/02 01:34:34;;;;;;;0.00;0.00;;;16.30;99.90;;;;;;5039400;28;20043;-57
2023/08/02 01:37:00;;;;;;;0.00;0.00;;;16.40;99.90;;;;;;5044083;28;20041;-57
2023/08/02 01:39:25;;;;;;;0.00;0.00;;;16.40;99.90;;;;;;5040524;28;20048;-56
2023/08/02 01:41:51;;;;;;;0.00;0.00;;;16.30;99.90;;;;;;5042604;28;20140;-56
2023/08/02 01:44:17;;;;;;;0.00;0.00;;;16.30;99.90;;;;;;5044517;28;20033;-62
2023/08/02 01:46:43;;;;;;;0.00;0.00;;;16.20;99.90;;;;;;5036845;28;20032;-55
2023/08/02 01:49:08;;;;;;;0.00;0.00;;;16.20;99.90;;;;;;5038284;28;20025;-56
2023/08/02 01:51:34;;;;;;;0.00;0.00;;;16.20;99.90;;;;;;5039995;28;20135;-56
2023/08/02 01:53:59;;;;;;;0.00;0.00;;;16.30;99.90;;;;;;5044506;28;20099;-57
2023/08/02 01:56:25;;;;;;;0.00;0.00;;;16.40;99.90;;;;;;5042483;28;20073;-57
2023/08/02 01:58:50;;;;;;;0.00;0.00;;;16.40;99.90;;;;;;5044486;28;20086;-57
2023/08/02 02:01:16;;;;;;;0.00;0.00;;;16.50;99.90;;;;;;5039764;28;20093;-56
2023/08/02 02:03:42;;;;;;;0.00;0.00;;;16.50;99.90;;;;;;5040746;28;20041;-57
2023/08/02 02:06:07;;;;;;;0.00;0.00;;;16.50;99.90;;;;;;5038619;28;20037;-55
2023/08/02 02:08:33;;;;;;;0.00;0.00;;;16.50;99.90;;;;;;5042940;28;20029;-56
2023/08/02 02:10:59;;;;;;;0.00;0.00;;;16.50;99.90;;;;;;5042725;28;20063;-56
2023/08/02 02:13:25;;;;;;;0.00;0.00;;;16.50;99.90;;;;;;5041446;28;20029;-55
2023/08/02 02:15:50;;;;;;;0.00;0.00;;;16.40;99.90;;;;;;5036631;28;20117;-58
2023/08/02 02:18:16;;;;;;;0.00;0.00;;;16.50;99.90;;;;;;5042718;28;20033;-56
2023/08/02 02:20:42;;;;;;;0.00;0.00;;;16.50;99.90;;;;;;5041643;28;20032;-55
2023/08/02 02:23:08;;;;;;;0.00;0.00;;;16.50;99.90;;;;;;5044196;28;20078;-56
2023/08/02 02:25:34;;;;;;;0.00;0.00;;;16.50;99.90;;;;;;5040250;28;20068;-56
2023/08/02 02:27:59;;;;;;;0.00;0.00;;;16.50;99.90;;;;;;5039590;28;20079;-56
2023/08/02 02:30:25;;;;;;;0.00;0.00;;;16.60;99.90;;;;;;5039677;28;20091;-56
2023/08/02 02:32:52;;;;;;;0.00;0.00;;;16.60;99.90;;;;;;5043997;28;20042;-56
2023/08/02 02:35:18;;;;;;;0.00;0.00;;;16.60;99.90;;;;;;5035190;28;20029;-57
2023/08/02 02:37:43;;;;;;;0.00;0.00;;;16.60;99.90;;;;;;5040792;28;20040;-56
2023/08/02 02:40:09;;;;;;;0.00;0.00;;;16.70;99.90;;;;;;5042802;28;20033;-56
2023/08/02 02:42:38;;;;;;;0.00;0.00;;;16.80;99.90;;;;;;5032619;28;20025;-56
2023/08/02 02:45:04;;;;;;;0.00;0.00;;;16.80;99.90;;;;;;5048605;28;20404;-57
2023/08/02 02:47:30;;;;;;;0.00;0.00;;;16.90;99.90;;;;;;5041194;28;20060;-56
2023/08/02 02:49:56;;;;;;;0.00;0.00;;;16.90;99.90;;;;;;5037733;28;20521;-56
2023/08/02 02:52:23;;;;;;;0.00;0.00;;;17.00;99.90;;;;;;5032150;28;20025;-57
2023/08/02 02:54:49;;;;;;;0.00;0.00;;;16.90;99.90;;;;;;5043920;28;20064;-56
2023/08/02 02:57:15;;;;;;;0.00;0.00;;;16.80;99.90;;;;;;5035442;28;20405;-56
2023/08/02 02:59:40;;;;;;;0.00;0.00;;;16.80;99.90;;;;;;5039191;28;20033;-57
2023/08/02 03:02:06;;;;;;;0.00;0.00;;;16.90;99.90;;;;;;5036059;28;20040;-57
2023/08/02 03:04:32;;;;;;;0.00;0.00;;;16.90;99.90;;;;;;5039333;28;20033;-55
2023/08/02 03:06:57;;;;;;;0.00;0.00;;;16.80;99.90;;;;;;5034111;28;20041;-57
2023/08/02 03:09:23;;;;;;;0.00;0.00;;;16.70;99.90;;;;;;5040100;28;20123;-57
2023/08/02 03:11:48;;;;;;;0.00;0.00;;;16.70;99.90;;;;;;5040313;28;20042;-57
2023/08/02 03:14:14;;;;;;;0.00;0.00;;;16.80;99.90;;;;;;5041623;28;20761;-55
2023/08/02 03:16:43;;;;;;;0.00;0.00;;;16.70;99.90;;;;;;5041114;28;20080;-57
2023/08/02 03:19:09;;;;;;;0.00;0.00;;;16.70;99.90;;;;;;5027732;28;20042;-56
2023/08/02 03:21:35;;;;;;;0.00;0.00;;;16.80;99.90;;;;;;5032672;28;20037;-57
2023/08/02 03:24:00;;;;;;;0.00;0.00;;;16.60;99.90;;;;;;5034124;28;20148;-57
2023/08/02 03:26:26;;;;;;;0.00;0.00;;;16.60;99.90;;;;;;5039709;28;20108;-57
2023/08/02 03:28:51;;;;;;;0.00;0.00;;;16.70;99.90;;;;;;5036434;28;20055;-57
2023/08/02 03:31:17;;;;;;;0.00;0.00;;;16.60;99.90;;;;;;5039376;28;20120;-56
2023/08/02 03:33:42;;;;;;;0.00;0.00;;;16.50;99.90;;;;;;5044978;28;20484;-58
2023/08/02 03:36:08;;;;;;;0.00;0.00;;;16.50;99.90;;;;;;5037901;28;20121;-58
2023/08/02 03:38:33;;;;;;;0.00;0.00;;;16.40;99.90;;;;;;5041419;28;20127;-58
2023/08/02 03:40:59;;;;;;;0.00;0.00;;;16.40;99.90;;;;;;5040644;28;20033;-57
2023/08/02 03:43:25;;;;;;;0.00;0.00;;;16.40;99.90;;;;;;5041505;28;20037;-57
2023/08/02 03:45:50;;;;;;;0.00;0.00;;;16.60;99.90;;;;;;5037991;28;20033;-57
2023/08/02 03:48:16;;;;;;;0.00;0.00;;;16.60;99.90;;;;;;5042900;28;20538;-57
2023/08/02 03:50:43;;;;;;;0.00;0.00;;;16.60;99.90;;;;;;5031370;28;20531;-57
2023/08/02 03:53:08;;;;;;;0.00;0.00;;;16.60;99.90;;;;;;5035990;28;20079;-57
2023/08/02 03:55:34;;;;;;;0.00;0.00;;;16.50;99.90;;;;;;5033563;28;20029;-57
2023/08/02 03:57:59;;;;;;;0.00;0.00;;;16.50;99.90;;;;;;5034625;28;20464;-58
2023/08/02 04:00:25;;;;;;;0.00;0.00;;;16.50;99.90;;;;;;5033032;28;20037;-57
2023/08/02 04:02:51;;;;;;;0.00;0.00;;;16.50;99.90;;;;;;5035811;28;20108;-57
2023/08/02 04:05:16;;;;;;;0.00;0.00;;;16.50;99.90;;;;;;5041012;28;20029;-57
2023/08/02 04:07:43;;;;;;;0.00;0.00;;;16.50;99.90;;;;;;5040113;28;20033;-57
2023/08/02 04:10:09;;;;;;;0.00;0.00;;;16.60;99.90;;;;;;5040985;28;20064;-57
2023/08/02 04:12:34;;;;;;;0.00;0.00;;;16.60;99.90;;;;;;5037190;28;20057;-56
2023/08/02 04:15:00;;;;;;;0.00;0.00;;;16.60;99.90;;;;;;5039056;28;20033;-56
2023/08/02 04:17:25;;;;;;;0.00;0.00;;;16.60;99.90;;;;;;5036932;28;20049;-58
2023/08/02 04:19:51;;;;;;;0.00;0.00;;;16.60;99.90;;;;;;5039570;28;20040;-57
2023/08/02 04:22:17;;;;;;;0.00;0.00;;;16.60;99.90;;;;;;5037489;28;20033;-57
2023/08/02 04:24:42;;;;;;;0.00;0.00;;;16.60;99.90;;;;;;5042067;28;20295;-57
2023/08/02 04:27:08;;;;;;;0.00;0.00;;;16.60;99.90;;;;;;5029464;28;20505;-58
2023/08/02 04:29:33;;;;;;;0.00;0.00;;;16.60;99.90;;;;;;5031954;28;20063;-56
2023/08/02 04:31:59;;;;;;;0.00;0.00;;;16.60;99.90;;;;;;5042142;28;20037;-57
2023/08/02 04:34:24;;;;;;;0.00;0.00;;;16.70;99.90;;;;;;5042118;28;20031;-57
2023/08/02 04:36:51;;;;;;;0.00;0.00;;;16.70;99.90;;;;;;5035800;28;20375;-55
2023/08/02 04:39:17;;;;;;;0.00;0.00;;;16.60;99.90;;;;;;5035593;28;20680;-55
2023/08/02 04:41:42;;;;;;;0.00;0.00;;;16.60;99.90;;;;;;5039042;28;20033;-56
2023/08/02 04:44:08;;;;;;;0.00;0.00;;;16.60;99.90;;;;;;5042527;28;20029;-57
2023/08/02 04:46:33;;;;;;;0.00;0.00;;;16.80;99.90;;;;;;5038708;28;20133;-58
2023/08/02 04:48:59;;;;;;;0.00;0.00;;;16.70;99.90;;;;;;5032178;28;20040;-57
2023/08/02 04:51:25;;;;;;;0.00;0.00;;;16.70;99.90;;;;;;5033951;28;20050;-56
2023/08/02 04:53:50;;;;;;;0.00;0.00;;;16.70;99.90;;;;;;5027446;28;20034;-57
2023/08/02 04:56:17;;;;;;;0.00;0.00;;;16.70;99.90;;;;;;5023178;28;20057;-56
2023/08/02 04:58:43;;;;;;;0.00;0.00;;;16.80;99.90;;;;;;5036453;28;20608;-58
2023/08/02 05:01:09;;;;;;;0.00;0.00;;;16.70;99.90;;;;;;5038658;28;20048;-57
2023/08/02 05:03:35;;;;;;;0.00;0.00;;;16.80;99.90;;;;;;5038617;28;20120;-58
2023/08/02 05:06:05;;;;;;;0.00;0.00;;;16.80;99.90;;;;;;5037115;28;20485;-57
2023/08/02 05:08:34;;;;;;;0.00;0.00;;;16.80;99.90;;;;;;5033367;28;20481;-56
2023/08/02 05:10:59;;;;;;;0.00;0.00;;;16.80;99.90;;;;;;5033350;28;20037;-57
2023/08/02 05:13:26;;;;;;;0.00;0.00;;;16.90;99.90;;;;;;5037473;28;20396;-55
2023/08/02 05:15:53;;;;;;;0.00;0.00;;;16.70;99.90;;;;;;5038982;28;20061;-56
2023/08/02 05:18:19;;;;;;;0.00;0.00;;;16.80;99.90;;;;;;5038772;28;20076;-58
2023/08/02 05:20:44;;;;;;;0.00;0.00;;;16.90;99.90;;;;;;5039037;28;20017;-57
2023/08/02 05:23:10;;;;;;;0.00;0.00;;;17.00;99.90;;;;;;5042690;28;20084;-58
2023/08/02 05:25:36;;;;;;;0.00;0.00;;;17.00;99.90;;;;;;5038039;28;20140;-58
2023/08/02 05:28:02;;;;;;;0.00;0.00;;;17.00;99.90;;;;;;5027610;28;20033;-57
2023/08/02 05:30:29;;;;;;;0.00;0.00;;;17.00;99.90;;;;;;5032090;28;20035;-57
2023/08/02 05:32:54;;;;;;;0.00;0.00;;;16.90;99.90;;;;;;5032209;28;20143;-58
2023/08/02 05:35:21;;;;;;;0.00;0.00;;;17.00;99.90;;;;;;5038642;28;20543;-58
2023/08/02 05:37:46;;;;;;;0.00;0.00;;;17.10;99.90;;;;;;5037907;28;20021;-57
2023/08/02 05:40:12;;;;;;;0.00;0.00;;;17.10;99.90;;;;;;5038359;28;20130;-59
2023/08/02 05:42:38;;;;;;;0.00;0.00;;;17.10;99.90;;;;;;5035404;28;20137;-58
2023/08/02 05:45:04;;;;;;;0.00;0.00;;;17.10;99.90;;;;;;5043529;28;20040;-59
2023/08/02 05:47:30;;;;;;;0.00;0.00;;;17.20;99.90;;;;;;5034742;28;20132;-59
2023/08/02 05:49:56;;;;;;;0.00;0.00;;;17.10;99.90;;;;;;5037721;28;20049;-59
2023/08/02 05:52:22;;;;;;;0.00;0.00;;;17.10;99.90;;;;;;5039465;28;20524;-58
2023/08/02 05:54:47;;;;;;;0.00;0.00;;;17.10;99.90;;;;;;5044433;28;20040;-58
2023/08/02 05:57:13;;;;;;;0.00;0.00;;;17.10;99.90;;;;;;5038815;28;20608;-58
2023/08/02 05:59:39;;;;;;;0.00;0.00;;;17.20;99.90;;;;;;5043862;28;20136;-59
2023/08/02 06:02:06;;;;;;;0.00;0.00;;;17.20;99.90;;;;;;5043310;28;20045;-58
2023/08/02 06:04:35;;;;;;;0.00;0.00;;;17.10;99.90;;;;;;5043102;28;20670;-58
2023/08/02 06:07:00;;;;;;;0.00;0.00;;;17.10;99.90;;;;;;5037079;28;20061;-57
2023/08/02 06:09:26;;;;;;;0.00;0.00;;;17.10;99.90;;;;;;5036213;28;20757;-57
2023/08/02 06:11:51;;;;;;;0.00;0.00;;;17.10;99.90;;;;;;5043610;28;20782;-57
2023/08/02 06:14:17;;;;;;;0.00;0.00;;;17.10;99.90;;;;;;5038600;28;20128;-58
2023/08/02 06:16:43;;;;;;;0.00;0.00;;;17.10;99.90;;;;;;5039832;28;20044;-58
2023/08/02 06:19:08;;;;;;;0.00;0.00;;;17.10;99.90;;;;;;5041260;28;20037;-57
2023/08/02 06:21:36;;;;;;;0.00;0.00;;;17.10;99.90;;;;;;5041614;28;20032;-57
2023/08/02 06:24:01;;;;;;;0.00;0.00;;;17.20;99.90;;;;;;5041527;28;20071;-57
2023/08/02 06:26:27;;;;;;;0.00;0.00;;;17.20;99.90;;;;;;5039476;28;20057;-58
2023/08/02 06:28:53;;;;;;;0.00;0.00;;;17.30;99.90;;;;;;5041697;28;20500;-58
2023/08/02 06:31:19;;;;;;;0.00;0.00;;;17.30;99.90;;;;;;5035362;28;20579;-57
2023/08/02 06:33:45;;;;;;;0.00;0.00;;;17.30;99.90;;;;;;5040192;28;20056;-58
2023/08/02 06:36:10;;;;;;;0.00;0.00;;;17.10;99.90;;;;;;5043275;28;20041;-57
2023/08/02 06:38:36;;;;;;;0.00;0.00;;;17.00;99.90;;;;;;5040942;28;20563;-59
2023/08/02 06:41:02;;;;;;;0.00;0.00;;;17.10;99.90;;;;;;5043658;28;20045;-57
2023/08/02 06:43:28;;;;;;;0.00;0.00;;;17.20;99.90;;;;;;5039422;28;20056;-56
2023/08/02 06:45:54;;;;;;;0.00;0.00;;;17.10;99.90;;;;;;5038679;28;20412;-58
2023/08/02 06:48:23;;;;;;;0.00;0.00;;;17.10;99.90;;;;;;5040252;28;20035;-57
2023/08/02 06:50:50;;;;;;;0.00;0.00;;;17.10;99.90;;;;;;5037497;28;20106;-57
2023/08/02 06:53:15;;;;;;;0.00;0.00;;;17.00;99.90;;;;;;5040508;28;20040;-57
2023/08/02 06:55:41;;;;;;;0.00;0.00;;;17.10;99.90;;;;;;5041755;28;20396;-58
2023/08/02 06:58:07;;;;;;;0.00;0.00;;;17.00;99.90;;;;;;5036074;28;20372;-58
2023/08/02 07:00:32;;;;;;;0.00;0.00;;;17.10;99.90;;;;;;5042037;28;20029;-57
2023/08/02 07:03:05;;;;;;;0.00;0.00;;;17.00;99.90;;;;;;5034694;28;20565;-57
2023/08/02 07:05:31;;;;;;;0.00;0.00;;;17.10;99.90;;;;;;5034974;28;20120;-58
2023/08/02 07:07:58;;;;;;;0.00;0.00;;;17.00;99.90;;;;;;5027297;28;20520;-57
2023/08/02 07:10:26;;;;;;;0.00;0.00;;;17.10;99.90;;;;;;5037922;28;20517;-57
2023/08/02 07:12:51;;;;;;;0.00;0.00;;;17.10;99.90;;;;;;5034365;28;20492;-57
2023/08/02 07:15:17;;;;;;;0.00;0.00;;;17.20;99.90;;;;;;5032819;28;20033;-57
2023/08/02 07:17:44;;;;;;;0.00;0.00;;;17.20;99.90;;;;;;5034226;28;20079;-58
2023/08/02 07:20:11;;;;;;;0.00;0.00;;;17.10;99.90;;;;;;5040415;28;20489;-58
2023/08/02 07:22:37;;;;;;;0.00;0.00;;;17.10;99.90;;;;;;5037889;28;20516;-58
2023/08/02 07:25:03;;;;;;;0.00;0.00;;;17.10;99.90;;;;;;5035693;28;20114;-57
2023/08/02 07:27:29;;;;;;;0.00;0.00;;;17.10;99.90;;;;;;5034682;28;20442;-57
2023/08/02 07:29:56;;;;;;;0.00;0.00;;;17.20;99.90;;;;;;5039521;28;20056;-58
2023/08/02 07:32:25;;;;;;;0.00;0.00;;;17.20;99.90;;;;;;5035097;28;20504;-57
2023/08/02 07:34:51;;;;;;;0.00;0.00;;;17.10;99.90;;;;;;5037840;28;20676;-58
2023/08/02 07:37:17;;;;;;;0.00;0.00;;;17.10;99.90;;;;;;5038416;28;20029;-58
2023/08/02 07:39:43;;;;;;;0.00;0.00;;;17.30;99.90;;;;;;5035812;28;20044;-58
2023/08/02 07:42:09;;;;;;;0.00;0.00;;;17.40;99.90;;;;;;5043091;28;20041;-58
2023/08/02 07:44:35;;;;;;;0.00;0.00;;;17.40;99.90;;;;;;5056276;28;20079;-57
2023/08/02 07:47:00;;;;;;;0.00;0.00;;;17.50;99.90;;;;;;5034700;28;20037;-58
2023/08/02 07:49:26;;;;;;;0.00;0.00;;;17.50;99.90;;;;;;5038543;28;20443;-60
2023/08/02 07:51:53;;;;;;;0.00;0.00;;;17.50;99.90;;;;;;5032948;28;20103;-58
2023/08/02 07:54:19;;;;;;;0.00;0.00;;;17.60;99.90;;;;;;5036366;28;20056;-60
2023/08/02 07:56:44;;;;;;;0.00;0.00;;;17.60;99.90;;;;;;5035183;28;20041;-57
2023/08/02 07:59:10;;;;;;;0.00;0.00;;;17.60;99.90;;;;;;5037392;28;20056;-58
2023/08/02 08:01:35;;;;;;;0.00;0.00;;;17.60;99.90;;;;;;5036248;28;20051;-59
2023/08/02 08:04:01;;;;;;;0.00;0.00;;;17.70;99.90;;;;;;5037585;28;20576;-59
2023/08/02 08:06:27;;;;;;;0.00;0.00;;;17.60;99.90;;;;;;5034313;28;20033;-59
2023/08/02 08:08:52;;;;;;;0.00;0.00;;;17.70;99.90;;;;;;5038206;28;20164;-59
2023/08/02 08:11:18;;;;;;;0.00;0.00;;;17.80;99.90;;;;;;5037551;28;20033;-58
2023/08/02 08:13:44;;;;;;;0.00;0.00;;;17.90;99.90;;;;;;5033917;28;20036;-58
2023/08/02 08:16:09;;;;;;;0.00;0.00;;;17.90;99.90;;;;;;5036292;28;20026;-59
2023/08/02 08:18:36;;;;;;;0.00;0.00;;;17.90;99.90;;;;;;5033733;28;20040;-58
2023/08/02 08:21:03;;;;;;;0.00;0.00;;;17.80;99.90;;;;;;5035646;28;20040;-58
2023/08/02 08:23:30;;;;;;;0.00;0.00;;;17.90;99.90;;;;;;5034959;28;20535;-59
2023/08/02 08:25:55;;;;;;;0.00;0.00;;;18.00;99.90;;;;;;5035001;28;20045;-58
2023/08/02 08:28:21;;;;;;;0.00;0.00;;;18.20;99.90;;;;;;5033948;28;20048;-58
2023/08/02 08:30:47;;;;;;;0.00;0.00;;;18.10;99.90;;;;;;5036736;28;20033;-58
2023/08/02 08:33:13;;;;;;;0.00;0.00;;;18.10;99.90;;;;;;5031548;28;20041;-61
2023/08/02 08:35:38;;;;;;;0.00;0.00;;;18.10;99.90;;;;;;5035380;28;20034;-62
2023/08/02 08:38:04;;;;;;;0.00;0.00;;;18.10;99.90;;;;;;5035220;28;20052;-60
2023/08/02 08:40:30;;;;;;;0.00;0.00;;;18.00;99.90;;;;;;5034074;28;20022;-60
2023/08/02 08:42:56;;;;;;;0.00;0.00;;;18.10;99.90;;;;;;5034827;28;20025;-62
2023/08/02 08:45:24;;;;;;;0.00;0.00;;;18.20;99.90;;;;;;5031392;28;20064;-59
2023/08/02 08:47:50;;;;;;;0.00;0.00;;;18.10;99.90;;;;;;5033672;28;20053;-59
2023/08/02 08:50:18;;;;;;;0.00;0.00;;;18.20;99.90;;;;;;5032488;28;20045;-63
2023/08/02 08:52:47;;;;;;;0.00;0.00;;;18.30;99.90;;;;;;5035004;28;20208;-60
2023/08/02 08:55:15;;;;;;;0.00;0.00;;;18.30;99.90;;;;;;5033007;28;20120;-58
2023/08/02 08:57:41;;;;;;;0.00;0.00;;;18.30;99.90;;;;;;5032639;28;20043;-61
2023/08/02 09:00:09;;;;;;;0.00;0.00;;;18.40;99.90;;;;;;5034909;28;20702;-61
2023/08/02 09:02:41;;;;;;;0.00;0.00;;;18.50;99.90;;;;;;5030266;28;20120;-63
2023/08/02 09:05:08;;;;;;;0.00;0.00;;;18.60;99.90;;;;;;5035807;28;20481;-62
2023/08/02 09:07:34;;;;;;;0.00;0.00;;;18.80;99.90;;;;;;5037991;28;20056;-60
2023/08/02 09:10:00;;;;;;;0.00;0.00;;;18.80;99.90;;;;;;5038506;28;20589;-59
2023/08/02 09:12:27;;;;;;;0.00;0.00;;;18.80;99.90;;;;;;5041570;28;20037;-61
2023/08/02 09:15:04;;;;;;;0.00;0.00;;;18.90;99.90;;;;;;5035057;28;20409;-58
2023/08/02 09:17:49;;;;;;;0.00;0.00;;;18.80;99.90;;;;;;5032174;28;20043;-59
2023/08/02 09:20:15;;;;;;;0.00;0.00;;;18.80;99.90;;;;;;5041713;28;20034;-61
2023/08/02 09:22:40;;;;;;;0.00;0.00;;;18.70;99.90;;;;;;5046562;28;20032;-57
2023/08/02 09:25:08;;;;;;;0.00;0.00;;;18.80;99.90;;;;;;5044475;28;20513;-58
2023/08/02 09:27:34;;;;;;;0.00;0.00;;;18.60;99.90;;;;;;5040396;28;20036;-56
2023/08/02 09:30:00;;;;;;;0.00;0.00;;;18.60;99.90;;;;;;5043569;28;20049;-56
2023/08/02 09:32:26;;;;;;;0.00;0.00;;;18.60;99.90;;;;;;5039094;28;20082;-57
2023/08/02 09:34:55;;;;;;;0.00;0.00;;;18.80;99.90;;;;;;5043801;28;20107;-58
2023/08/02 09:37:36;;;;;;;0.00;0.00;;;18.80;99.90;;;;;;5045706;28;20037;-58
2023/08/02 09:40:11;;;;;;;0.00;0.00;;;18.90;99.90;;;;;;5045572;28;20037;-57
2023/08/02 09:42:36;;;;;;;0.00;0.00;;;19.00;99.90;;;;;;5040724;28;20547;-58
2023/08/02 09:45:03;;;;;;;0.00;0.00;;;18.90;99.90;;;;;;5042323;28;20041;-56
2023/08/02 09:47:29;;;;;;;0.00;0.00;;;18.80;99.90;;;;;;5041348;28;20064;-57
2023/08/02 09:50:09;;;;;;;0.00;0.00;;;18.90;99.90;;;;;;5044001;28;20061;-57
2023/08/02 09:52:38;;;;;;;0.00;0.00;;;18.80;99.90;;;;;;5029552;28;20030;-56
2023/08/02 09:55:03;;;;;;;0.00;0.00;;;18.90;99.90;;;;;;5040388;28;20507;-57
2023/08/02 09:57:30;;;;;;;0.00;0.00;;;18.90;99.90;;;;;;5041592;28;20060;-57
2023/08/02 10:00:02;;;;;;;0.00;0.00;;;18.90;99.90;;;;;;5039955;28;20685;-58
2023/08/02 10:02:29;;;;;;;0.00;0.00;;;18.90;99.90;;;;;;5037237;28;20055;-56
2023/08/02 10:04:57;;;;;;;0.00;0.00;;;18.90;99.90;;;;;;5039719;28;20307;-56
2023/08/02 10:07:33;;;;;;;0.00;0.00;;;19.00;99.90;;;;;;5041432;28;20037;-57
2023/08/02 10:10:06;;;;;;;0.00;0.00;;;18.90;99.90;;;;;;5039854;28;20025;-57
2023/08/02 10:12:37;;;;;;;0.00;0.00;;;19.00;99.90;;;;;;5034292;28;20026;-56
2023/08/02 10:15:03;;;;;;;0.00;0.00;;;19.20;99.90;;;;;;5039378;28;20579;-57
2023/08/02 10:17:31;;;;;;;0.00;0.00;;;19.30;99.90;;;;;;5033282;28;20037;-57
2023/08/02 10:19:59;;;;;;;0.00;0.00;;;19.40;99.90;;;;;;5037326;28;20564;-58
2023/08/02 10:22:25;;;;;;;0.00;0.00;;;19.40;99.90;;;;;;5043099;28;20396;-56
2023/08/02 10:24:52;;;;;;;0.00;0.00;;;19.40;99.90;;;;;;5038916;28;20459;-57
2023/08/02 10:27:19;;;;;;;0.00;0.00;;;19.40;99.90;;;;;;5037910;28;20119;-56
2023/08/02 10:29:47;;;;;;;0.00;0.00;;;19.40;99.90;;;;;;5037272;28;20057;-56
2023/08/02 10:32:18;;;;;;;0.00;0.00;;;19.50;99.90;;;;;;5040661;28;20048;-56
2023/08/02 10:34:46;;;;;;;0.00;0.00;;;19.60;99.90;;;;;;5041159;28;20021;-56
2023/08/02 10:37:12;;;;;;;0.00;0.00;;;19.60;99.90;;;;;;5045036;28;20531;-56
2023/08/02 10:39:50;;;;;;;0.00;0.00;;;19.60;99.90;;;;;;5039890;28;20072;-57
2023/08/02 10:42:22;;;;;;;0.00;0.00;;;19.60;99.90;;;;;;5036021;28;20045;-56
2023/08/02 10:44:56;;;;;;;0.00;0.00;;;19.70;99.90;;;;;;5041184;28;20420;-56
2023/08/02 10:47:26;;;;;;;0.00;0.00;;;19.80;99.90;;;;;;5042867;28;20206;-56
2023/08/02 10:49:52;;;;;;;0.00;0.00;;;19.90;99.90;;;;;;5044813;28;20388;-57
2023/08/02 10:52:31;;;;;;;0.00;0.00;;;20.00;99.90;;;;;;5036327;28;20505;-56
2023/08/02 10:55:10;;;;;;;0.00;0.00;;;20.10;99.90;;;;;;5041637;28;20094;-55
2023/08/02 10:57:37;;;;;;;0.00;0.00;;;20.30;99.90;;;;;;5041286;28;20029;-57
2023/08/02 11:00:19;;;;;;;0.00;0.00;;;20.30;99.90;;;;;;5038072;28;20663;-58
2023/08/02 11:02:49;;;;;;;0.00;0.00;;;20.40;99.90;;;;;;5038357;28;20139;-57
2023/08/02 11:05:19;;;;;;;0.00;0.00;;;20.50;99.90;;;;;;5042548;28;20113;-57
2023/08/02 11:07:59;;;;;;;0.00;0.00;;;20.70;99.90;;;;;;5036908;28;20040;-57
2023/08/02 11:10:24;;;;;;;0.00;0.00;;;20.80;99.90;;;;;;5040927;28;20082;-56
2023/08/02 11:12:56;;;;;;;0.00;0.00;;;21.00;99.90;;;;;;5044425;28;20041;-56
2023/08/02 11:15:22;;;;;;;0.00;0.00;;;20.90;99.90;;;;;;5042805;28;20108;-56
2023/08/02 11:17:54;;;;;;;0.00;0.00;;;20.90;99.90;;;;;;5042995;28;20557;-55
2023/08/02 11:20:27;;;;;;;0.00;0.00;;;21.00;99.90;;;;;;5032253;28;20542;-56
2023/08/02 11:22:53;;;;;;;0.00;0.00;;;20.80;99.90;;;;;;5034515;28;20101;-55
2023/08/02 11:25:22;;;;;;;0.00;0.00;;;20.90;99.90;;;;;;5042523;28;20041;-56
2023/08/02 11:27:47;;;;;;;0.00;0.00;;;20.90;99.90;;;;;;5040162;28;20029;-55
2023/08/02 11:30:19;;;;;;;0.00;0.00;;;21.00;99.90;;;;;;5036909;28;20083;-56
2023/08/02 11:32:46;;;;;;;0.00;0.00;;;21.20;99.90;;;;;;5037455;28;20598;-56
2023/08/02 11:35:19;;;;;;;0.00;0.00;;;21.00;99.90;;;;;;5037178;28;20308;-56
2023/08/02 11:37:45;;;;;;;0.00;0.00;;;20.90;99.90;;;;;;5038735;28;20040;-57
2023/08/02 11:40:11;;;;;;;0.00;0.00;;;20.70;99.90;;;;;;5040682;28;20041;-57
2023/08/02 11:42:48;;;;;;;0.00;0.00;;;20.60;99.90;;;;;;5037580;28;20056;-56
2023/08/02 11:45:26;;;;;;;0.00;0.00;;;20.60;99.90;;;;;;5029925;28;20087;-57
2023/08/02 11:47:51;;;;;;;0.00;0.00;;;20.60;99.90;;;;;;5037593;28;20496;-56
2023/08/02 11:50:24;;;;;;;0.00;0.00;;;20.50;99.90;;;;;;5037353;28;20047;-57
2023/08/02 11:52:51;;;;;;;0.00;0.00;;;;;;;;;;5040288;28;20095;-55
2023/08/02 11:55:19;;;;;;;0.00;0.00;;;19.90;99.90;;;;;;5037498;28;20538;-58
2023/08/02 11:57:46;;;;;;;0.00;0.00;;;21.60;99.90;;;;;;5038872;28;20043;-58
2023/08/02 12:00:12;;;;;;;0.00;0.00;;;20.00;99.90;;;;;;5036794;28;20052;-58
2023/08/02 12:02:38;;;;;;;0.00;0.00;;;20.20;99.90;;;;;;5038412;28;20655;-56
2023/08/02 12:05:08;;;;;;;0.00;0.00;;;20.30;99.90;;;;;;5039280;28;20111;-56
2023/08/02 12:07:35;;;;;;;0.00;0.00;;;20.30;99.90;;;;;;5034487;28;20040;-58
2023/08/02 12:10:04;;;;;;;0.00;0.00;;;20.60;99.90;;;;;;5037813;28;20064;-57
2023/08/02 12:12:32;;;;;;;0.00;0.00;;;20.50;99.90;;;;;;5035319;28;20074;-58
2023/08/02 12:14:58;;;;;;;0.00;0.00;;;20.60;99.90;;;;;;5040708;28;20444;-56
2023/08/02 12:17:24;;;;;;;0.00;0.00;;;20.70;99.90;;;;;;5038666;28;20507;-57
2023/08/02 12:19:51;;;;;;;0.00;0.00;;;20.60;99.90;;;;;;5034557;28;20509;-57
2023/08/02 12:22:19;;;;;;;0.00;0.00;;;20.70;99.90;;;;;;5032584;28;20496;-58
2023/08/02 12:24:45;;;;;;;0.00;0.00;;;21.00;99.90;;;;;;5039111;28;20730;-55
2023/08/02 12:27:15;;;;;;;0.00;0.00;;;20.70;99.90;;;;;;5035904;28;20762;-57
2023/08/02 12:29:44;;;;;;;0.00;0.00;;;20.70;99.90;;;;;;5038770;28;20654;-56
2023/08/02 12:32:22;;;;;;;0.00;0.00;;;20.70;99.90;;;;;;5032946;28;20029;-56
2023/08/02 12:34:48;;;;;;;0.00;0.00;;;20.70;99.90;;;;;;5036992;28;20555;-57
2023/08/02 12:37:16;;;;;;;0.00;0.00;;;20.70;99.90;;;;;;5038960;28;20033;-56
2023/08/02 12:39:41;;;;;;;0.00;0.00;;;20.60;99.90;;;;;;5034087;28;20063;-56
2023/08/02 12:42:07;;;;;;;0.00;0.00;;;20.60;99.90;;;;;;5041629;28;20120;-56
2023/08/02 12:44:33;;;;;;;0.00;0.00;;;20.30;99.90;;;;;;5033714;28;20037;-57
2023/08/02 12:46:58;;;;;;;0.00;0.00;;;20.10;99.90;;;;;;5042749;28;20070;-57